createdAt,value
2019-04-11T00:00:43.864Z,15.40
2019-04-11T00:03:19.489Z,16.47
2019-04-11T00:05:55.089Z,15.30
2019-04-11T00:08:30.331Z,15.27
2019-04-11T00:11:05.959Z,15.73
2019-04-11T00:13:41.307Z,14.80
2019-04-11T00:16:17.215Z,15.00
2019-04-11T00:18:52.703Z,14.53
2019-04-11T00:21:28.875Z,14.57
2019-04-11T00:24:04.950Z,15.10
2019-04-11T00:26:40.342Z,15.40
2019-04-11T00:29:16.417Z,14.03
2019-04-11T00:31:52.753Z,15.00
2019-04-11T00:34:29.008Z,14.70
2019-04-11T00:37:05.147Z,14.47
2019-04-11T00:39:40.647Z,15.33
2019-04-11T00:42:16.624Z,16.07
2019-04-11T00:44:51.847Z,14.33
2019-04-11T00:47:27.020Z,14.77
2019-04-11T00:50:04.064Z,14.00
2019-04-11T00:52:39.248Z,14.80
2019-04-11T00:55:15.355Z,14.47
2019-04-11T00:57:50.570Z,15.03
2019-04-11T01:00:27.006Z,13.93
2019-04-11T01:03:03.894Z,14.30
2019-04-11T01:05:39.458Z,14.30
2019-04-11T01:08:15.671Z,14.37
2019-04-11T01:10:51.822Z,13.10
2019-04-11T01:13:39.221Z,14.23
2019-04-11T01:16:09.123Z,14.13
2019-04-11T01:18:44.499Z,13.87
2019-04-11T01:21:20.055Z,13.50
2019-04-11T01:23:55.512Z,13.27
2019-04-11T01:26:31.122Z,13.53
2019-04-11T01:29:07.165Z,13.60
2019-04-11T01:31:44.188Z,13.63
2019-04-11T01:34:20.246Z,14.83
2019-04-11T01:36:55.681Z,14.80
2019-04-11T01:39:41.231Z,15.20
2019-04-11T01:42:17.698Z,13.40
2019-04-11T01:44:52.990Z,13.40
2019-04-11T01:47:47.225Z,14.70
2019-04-11T01:50:25.184Z,14.63
2019-04-11T01:53:00.589Z,15.47
2019-04-11T01:55:36.754Z,15.57
2019-04-11T01:58:12.212Z,14.00
2019-04-11T02:01:12.705Z,13.83
2019-04-11T02:04:07.722Z,14.60
2019-04-11T02:06:43.196Z,14.10
2019-04-11T02:09:18.441Z,13.00
2019-04-11T02:11:54.047Z,13.67
2019-04-11T02:14:29.321Z,14.10
2019-04-11T02:17:04.921Z,13.63
2019-04-11T02:19:40.534Z,13.73
2019-04-11T02:22:47.166Z,13.10
2019-04-11T02:25:50.271Z,12.53
2019-04-11T02:28:25.507Z,13.00
2019-04-11T02:31:02.560Z,14.53
2019-04-11T02:33:38.905Z,13.57
2019-04-11T02:36:14.233Z,13.90
2019-04-11T02:38:55.124Z,14.07
2019-04-11T02:41:27.514Z,13.73
2019-04-11T02:44:03.562Z,14.77
2019-04-11T02:46:47.542Z,14.47
2019-04-11T02:49:17.003Z,14.30
2019-04-11T02:51:53.639Z,16.63
2019-04-11T02:54:30.649Z,15.57
2019-04-11T02:57:07.725Z,14.53
2019-04-11T02:59:46.244Z,15.83
2019-04-11T03:02:21.464Z,15.37
2019-04-11T03:04:57.599Z,15.13
2019-04-11T03:07:34.003Z,15.47
2019-04-11T03:10:11.849Z,14.57
2019-04-11T03:12:48.415Z,15.00
2019-04-11T03:15:37.535Z,14.50
2019-04-11T03:18:04.248Z,15.57
2019-04-11T03:20:45.921Z,15.63
2019-04-11T03:23:18.100Z,15.50
2019-04-11T03:25:52.457Z,15.57
2019-04-11T03:28:30.903Z,14.73
2019-04-11T03:31:47.280Z,14.67
2019-04-11T03:34:25.323Z,15.07
2019-04-11T03:39:14.808Z,16.47
2019-04-11T03:41:51.863Z,15.43
2019-04-11T03:44:18.797Z,15.17
2019-04-11T03:47:01.280Z,14.63
2019-04-11T03:49:31.720Z,16.57
2019-04-11T03:52:03.364Z,15.57
2019-04-11T03:54:40.625Z,15.70
2019-04-11T03:57:17.366Z,15.83
2019-04-11T03:59:54.540Z,16.33
2019-04-11T04:02:30.808Z,16.43
2019-04-11T04:05:08.831Z,15.77
2019-04-11T04:07:44.426Z,14.87
2019-04-11T04:10:21.461Z,15.93
2019-04-11T04:12:58.246Z,15.00
2019-04-11T04:16:05.002Z,15.50
2019-04-11T04:18:54.071Z,14.17
2019-04-11T04:22:00.596Z,15.03
2019-04-11T04:24:39.790Z,14.53
2019-04-11T04:27:13.339Z,16.23
2019-04-11T04:29:52.854Z,16.87
2019-04-11T04:32:25.407Z,15.87
2019-04-11T04:35:01.725Z,15.27
2019-04-11T04:37:38.608Z,15.40
2019-04-11T04:40:31.459Z,14.53
2019-04-11T04:42:55.391Z,14.83
2019-04-11T04:45:31.881Z,15.83
2019-04-11T04:48:11.038Z,15.90
2019-04-11T04:50:44.614Z,14.90
2019-04-11T04:53:20.401Z,16.03
2019-04-11T04:55:57.393Z,15.20
2019-04-11T04:58:33.924Z,14.43
2019-04-11T05:01:10.060Z,14.73
2019-04-11T05:03:46.643Z,15.33
2019-04-11T05:06:23.965Z,15.97
2019-04-11T05:09:00.198Z,14.63
2019-04-11T05:11:36.155Z,14.70
2019-04-11T05:14:12.496Z,14.57
2019-04-11T05:16:48.203Z,16.57
2019-04-11T05:19:23.804Z,15.80
2019-04-11T05:21:59.762Z,15.10
2019-04-11T05:24:35.149Z,14.60
2019-04-11T05:27:10.488Z,14.93
2019-04-11T05:29:45.919Z,14.80
2019-04-11T05:32:21.933Z,14.40
2019-04-11T05:34:58.391Z,13.90
2019-04-11T05:37:33.773Z,15.00
2019-04-11T05:40:09.326Z,15.27
2019-04-11T05:42:45.154Z,14.87
2019-04-11T05:45:22.897Z,14.13
2019-04-11T05:47:58.354Z,14.47
2019-04-11T05:50:36.029Z,14.67
2019-04-11T05:53:11.495Z,14.83
2019-04-11T05:55:47.568Z,15.27
2019-04-11T05:58:22.789Z,14.67
2019-04-11T06:01:05.874Z,14.53
2019-04-11T06:03:43.646Z,15.17
2019-04-11T06:06:36.707Z,14.67
2019-04-11T06:09:15.864Z,15.90
2019-04-11T06:12:07.442Z,15.27
2019-04-11T06:14:55.515Z,14.40
2019-04-11T06:17:30.837Z,15.17
2019-04-11T06:20:27.591Z,14.73
2019-04-11T06:23:10.032Z,13.70
2019-04-11T06:26:09.172Z,14.73
2019-04-11T06:28:44.522Z,15.37
2019-04-11T06:31:38.158Z,16.03
2019-04-11T06:34:13.468Z,14.73
2019-04-11T06:37:07.703Z,14.93
2019-04-11T06:40:02.517Z,15.20
2019-04-11T06:42:56.734Z,14.73
2019-04-11T06:45:56.708Z,13.90
2019-04-11T06:49:00.297Z,15.07
2019-04-11T06:51:40.190Z,14.50
2019-04-11T06:54:32.935Z,15.33
2019-04-11T06:57:13.953Z,14.97
2019-04-11T06:59:50.341Z,15.77
2019-04-11T07:02:27.826Z,14.90
2019-04-11T07:05:06.323Z,14.77
2019-04-11T07:07:45.101Z,15.87
2019-04-11T07:10:24.575Z,15.57
2019-04-11T07:13:24.964Z,15.33
2019-04-11T07:16:00.477Z,15.60
2019-04-11T07:19:11.376Z,14.33
2019-04-11T07:21:46.771Z,15.27
2019-04-11T07:24:25.760Z,14.47
2019-04-11T07:27:09.535Z,14.67
2019-04-11T07:30:10.065Z,14.87
2019-04-11T07:32:45.378Z,14.87
2019-04-11T07:35:59.773Z,15.23
2019-04-11T07:38:41.157Z,14.07
2019-04-11T07:41:41.767Z,15.20
2019-04-11T07:44:18.108Z,14.23
2019-04-11T07:47:13.611Z,14.23
2019-04-11T07:49:43.234Z,14.57
2019-04-11T07:52:18.665Z,15.60
2019-04-11T07:54:55.755Z,14.57
2019-04-11T07:57:38.305Z,15.03
2019-04-11T08:00:52.900Z,14.80
2019-04-11T08:03:46.955Z,15.00
2019-04-11T08:06:54.257Z,15.50
2019-04-11T08:09:48.562Z,14.53
2019-04-11T08:12:27.652Z,14.73
2019-04-11T08:15:21.886Z,14.07
2019-04-11T08:17:59.821Z,15.13
2019-04-11T08:21:06.278Z,15.47
2019-04-11T08:23:43.539Z,14.93
2019-04-11T08:26:44.355Z,13.90
2019-04-11T08:29:20.360Z,14.27
2019-04-11T08:32:29.755Z,14.63
2019-04-11T08:35:17.689Z,13.97
2019-04-11T08:37:58.075Z,14.77
2019-04-11T08:40:37.796Z,15.20
2019-04-11T08:43:17.146Z,16.00
2019-04-11T08:45:58.189Z,14.77
2019-04-11T08:48:35.703Z,14.87
2019-04-11T08:51:11.423Z,14.70
2019-04-11T08:54:15.429Z,15.23
2019-04-11T08:56:51.519Z,15.03
2019-04-11T08:59:58.086Z,15.60
2019-04-11T09:02:45.624Z,16.23
2019-04-11T09:05:45.730Z,15.53
2019-04-11T09:08:42.753Z,17.00
2019-04-11T09:11:22.715Z,15.33
2019-04-11T09:14:22.689Z,15.43
2019-04-11T09:17:10.108Z,14.90
2019-04-11T09:20:13.665Z,15.60
2019-04-11T09:23:06.194Z,15.13
2019-04-11T09:26:12.491Z,15.17
2019-04-11T09:28:51.471Z,15.97
2019-04-11T09:31:48.672Z,15.53
2019-04-11T09:34:31.924Z,16.53
2019-04-11T09:37:32.210Z,15.67
2019-04-11T09:40:28.057Z,14.73
2019-04-11T09:43:22.194Z,14.90
2019-04-11T09:46:16.690Z,15.83
2019-04-11T09:49:10.624Z,15.27
2019-04-11T09:52:12.248Z,15.60
2019-04-11T09:55:04.482Z,16.33
2019-04-11T09:57:46.435Z,16.20
2019-04-11T10:00:43.727Z,15.27
2019-04-11T10:03:28.007Z,16.60
2019-04-11T10:06:38.754Z,16.33
2019-04-11T10:09:15.504Z,15.40
2019-04-11T10:12:08.478Z,16.10
2019-04-11T10:14:46.470Z,15.53
2019-04-11T10:17:42.340Z,14.10
2019-04-11T10:20:20.260Z,15.57
2019-04-11T10:23:10.247Z,15.77
2019-04-11T10:25:49.903Z,16.03
2019-04-11T10:28:53.611Z,14.90
2019-04-11T10:31:28.942Z,14.70
2019-04-11T10:34:27.957Z,16.50
2019-04-11T10:37:09.754Z,16.40
2019-04-11T10:40:04.394Z,15.23
2019-04-11T10:42:42.466Z,15.23
2019-04-11T10:45:36.387Z,16.83
2019-04-11T10:48:11.728Z,16.03
2019-04-11T10:51:17.930Z,15.87
2019-04-11T10:53:55.724Z,14.07
2019-04-11T10:56:49.940Z,16.67
2019-04-11T10:59:27.973Z,15.20
2019-04-11T11:02:29.312Z,17.07
2019-04-11T11:05:05.258Z,15.80
2019-04-11T11:07:42.526Z,15.43
2019-04-11T11:10:23.619Z,15.17
2019-04-11T11:13:18.008Z,14.73
2019-04-11T11:16:00.053Z,16.93
2019-04-11T11:19:19.538Z,16.80
2019-04-11T11:21:32.143Z,14.90
2019-04-11T11:24:38.235Z,14.87
2019-04-11T11:27:11.211Z,14.57
2019-04-11T11:30:08.360Z,14.33
2019-04-11T11:32:46.049Z,15.07
2019-04-11T11:35:49.991Z,13.57
2019-04-11T11:38:26.077Z,14.53
2019-04-11T11:41:30.269Z,14.77
2019-04-11T11:44:07.572Z,14.37
2019-04-11T11:47:15.479Z,14.07
2019-04-11T11:49:57.137Z,14.23
2019-04-11T11:52:51.107Z,14.00
2019-04-11T11:55:29.851Z,13.67
2019-04-11T11:58:23.674Z,14.80
2019-04-11T12:01:03.598Z,13.13
2019-04-11T12:04:03.113Z,13.80
2019-04-11T12:06:39.499Z,13.37
2019-04-11T12:09:34.240Z,14.20
2019-04-11T12:12:15.611Z,13.93
2019-04-11T12:15:23.402Z,14.37
2019-04-11T12:18:11.108Z,13.63
2019-04-11T12:20:54.717Z,13.10
2019-04-11T12:23:58.060Z,13.33
2019-04-11T12:26:30.404Z,13.00
2019-04-11T12:29:30.231Z,14.30
2019-04-11T12:32:08.296Z,13.50
2019-04-11T12:35:00.497Z,14.23
2019-04-11T12:37:41.477Z,14.67
2019-04-11T12:40:34.467Z,14.13
2019-04-11T12:43:10.512Z,14.03
2019-04-11T12:45:53.953Z,14.03
2019-04-11T12:48:34.196Z,14.57
2019-04-11T12:51:37.685Z,13.17
2019-04-11T12:54:20.523Z,14.27
2019-04-11T12:57:20.752Z,13.07
2019-04-11T13:00:04.165Z,12.93
2019-04-11T13:02:58.559Z,13.30
2019-04-11T13:05:33.970Z,12.23
2019-04-11T13:08:31.028Z,14.37
2019-04-11T13:11:08.024Z,13.07
2019-04-11T13:14:08.789Z,12.67
2019-04-11T13:16:46.011Z,12.10
2019-04-11T13:19:39.384Z,12.10
2019-04-11T13:22:19.554Z,12.93
2019-04-11T13:25:20.639Z,13.03
2019-04-11T13:27:58.065Z,13.20
2019-04-11T13:30:51.556Z,13.13
2019-04-11T13:33:28.065Z,13.07
2019-04-11T13:36:13.055Z,13.60
2019-04-11T13:38:51.576Z,14.03
2019-04-11T13:41:45.115Z,13.47
2019-04-11T13:44:26.394Z,14.03
2019-04-11T13:47:19.881Z,14.77
2019-04-11T13:49:57.528Z,13.90
2019-04-11T13:52:54.990Z,13.17
2019-04-11T13:55:35.759Z,12.60
2019-04-11T13:58:32.965Z,12.63
2019-04-11T14:01:13.230Z,14.13
2019-04-11T14:04:22.903Z,14.23
2019-04-11T14:06:58.287Z,13.90
2019-04-11T14:09:37.293Z,13.73
2019-04-11T14:12:14.931Z,14.07
2019-04-11T14:15:07.470Z,14.53
2019-04-11T14:17:57.800Z,13.03
2019-04-11T14:20:54.893Z,14.00
2019-04-11T14:23:38.393Z,13.40
2019-04-11T14:26:33.259Z,13.10
2019-04-11T14:29:26.692Z,13.67
2019-04-11T14:32:15.334Z,12.70
2019-04-11T14:35:09.732Z,13.00
2019-04-11T14:37:52.102Z,14.40
2019-04-11T14:40:36.466Z,13.07
2019-04-11T14:43:29.411Z,13.07
2019-04-11T14:46:23.705Z,13.10
2019-04-11T14:49:15.967Z,12.77
2019-04-11T14:52:16.977Z,13.23
2019-04-11T14:54:51.966Z,13.03
2019-04-11T14:57:55.260Z,12.33
2019-04-11T15:00:33.289Z,12.17
2019-04-11T15:03:36.653Z,12.80
2019-04-11T15:06:27.182Z,12.83
2019-04-11T15:09:24.335Z,12.37
2019-04-11T15:12:09.006Z,11.63
2019-04-11T15:15:15.339Z,12.50
2019-04-11T15:17:55.629Z,12.17
2019-04-11T15:20:54.352Z,11.77
2019-04-11T15:23:40.373Z,12.37
2019-04-11T15:26:46.598Z,11.40
2019-04-11T15:29:26.390Z,12.30
2019-04-11T15:32:20.533Z,12.63
2019-04-11T15:34:59.314Z,12.97
2019-04-11T15:38:09.062Z,11.23
2019-04-11T15:40:47.796Z,11.40
2019-04-11T15:43:44.812Z,11.83
2019-04-11T15:46:25.110Z,11.90
2019-04-11T15:49:31.160Z,11.77
2019-04-11T15:52:14.427Z,11.70
2019-04-11T15:55:02.537Z,10.67
2019-04-11T15:57:42.935Z,11.43
2019-04-11T16:00:35.551Z,11.67
2019-04-11T16:03:17.416Z,12.00
2019-04-11T16:06:17.545Z,11.53
2019-04-11T16:08:55.324Z,11.27
2019-04-11T16:11:52.389Z,13.10
2019-04-11T16:14:35.833Z,12.40
2019-04-11T16:17:30.058Z,12.00
2019-04-11T16:20:27.254Z,11.53
2019-04-11T16:23:27.425Z,11.13
2019-04-11T16:26:04.929Z,12.30
2019-04-11T16:28:57.274Z,12.20
2019-04-11T16:31:40.152Z,12.77
2019-04-11T16:34:48.325Z,13.17
2019-04-11T16:37:18.572Z,12.03
2019-04-11T16:40:11.567Z,12.93
2019-04-11T16:42:53.584Z,13.20
2019-04-11T16:46:24.723Z,12.07
2019-04-11T16:49:52.378Z,13.83
2019-04-11T16:53:21.415Z,12.40
2019-04-11T16:59:38.423Z,12.77
2019-04-11T17:02:41.542Z,12.87
2019-04-11T17:05:30.694Z,11.40
2019-04-11T17:09:21.870Z,11.90
2019-04-11T17:16:07.827Z,11.03
2019-04-11T17:16:31.367Z,10.33
2019-04-11T17:26:38.704Z,11.10
2019-04-11T17:30:19.439Z,11.53
2019-04-11T17:33:28.552Z,11.43
2019-04-11T17:36:39.136Z,12.07
2019-04-11T17:39:59.587Z,11.43
2019-04-11T17:46:41.824Z,10.63
2019-04-11T17:53:42.892Z,10.93
2019-04-11T17:56:38.228Z,11.17
2019-04-11T17:59:43.543Z,11.43
2019-04-11T18:02:55.967Z,10.60
2019-04-11T18:05:59.202Z,11.20
2019-04-11T18:09:17.361Z,10.50
2019-04-11T18:12:14.554Z,10.73
2019-04-11T18:18:16.536Z,12.63
2019-04-11T18:21:31.532Z,11.47
2019-04-11T18:24:50.211Z,10.37
2019-04-11T18:28:24.388Z,11.00
2019-04-11T18:31:35.008Z,11.17
2019-04-11T18:38:39.013Z,10.90
2019-04-11T18:45:49.062Z,10.33
2019-04-11T18:52:54.322Z,10.63
2019-04-11T18:59:58.253Z,10.77
2019-04-11T19:03:21.972Z,10.40
2019-04-11T19:06:29.959Z,10.47
2019-04-11T19:09:52.771Z,11.00
2019-04-11T19:13:58.055Z,9.97
2019-04-11T19:20:59.999Z,11.20
2019-04-11T19:28:38.886Z,10.50
2019-04-11T19:30:46.606Z,9.43
2019-04-11T19:41:21.375Z,10.40
2019-04-11T19:44:50.766Z,10.10
2019-04-11T19:51:50.933Z,10.07
2019-04-11T19:55:16.875Z,10.87
2019-04-11T19:59:01.336Z,10.17
2019-04-11T20:05:23.534Z,10.40
2019-04-11T20:08:36.734Z,11.00
2019-04-11T20:11:54.194Z,11.43
2019-04-11T20:18:50.388Z,11.50
2019-04-11T21:33:59.438Z,9.67
2019-04-11T21:54:55.322Z,10.60
2019-04-11T22:26:26.452Z,9.63
2019-04-11T22:29:01.660Z,9.20
2019-04-11T22:31:36.909Z,9.83
2019-04-11T22:34:28.920Z,10.47
2019-04-11T22:37:04.174Z,9.23
2019-04-11T22:39:39.376Z,9.10
2019-04-11T22:42:14.549Z,9.83
2019-04-11T22:44:49.753Z,10.80
2019-04-11T22:47:24.982Z,11.00
2019-04-11T22:50:00.200Z,9.23
2019-04-11T22:52:35.365Z,10.13
2019-04-11T22:55:11.922Z,10.97
2019-04-11T22:57:47.306Z,10.93
2019-04-11T23:00:22.448Z,10.33
2019-04-11T23:03:19.952Z,8.77
2019-04-11T23:05:55.174Z,10.50
2019-04-11T23:08:30.326Z,10.10
2019-04-11T23:11:08.541Z,10.03
2019-04-11T23:13:45.749Z,11.87
2019-04-11T23:16:20.522Z,9.57
2019-04-11T23:18:55.676Z,9.87
2019-04-11T23:21:30.880Z,8.63
2019-04-11T23:24:11.751Z,10.67
2019-04-11T23:26:42.943Z,9.60
2019-04-11T23:29:18.094Z,9.53
2019-04-11T23:31:53.232Z,8.93
2019-04-11T23:34:28.448Z,9.43
2019-04-11T23:37:03.645Z,10.23
2019-04-11T23:39:38.805Z,9.87
2019-04-11T23:42:13.940Z,9.73
2019-04-11T23:44:50.486Z,9.97
2019-04-11T23:47:25.934Z,10.80
2019-04-11T23:50:01.088Z,12.10
2019-04-11T23:52:36.284Z,9.77
2019-04-11T23:55:11.452Z,10.50
2019-04-11T23:57:46.598Z,10.27
